sensor_id;sensor_type;location;lat;lon;timestamp;pressure;altitude;pressure_sealevel;temperature;humidity
68380;BME280;57711;53.196;19.638;2023-05-01T00:01:51;100807.23;;;7.54;44.16
68380;BME280;57711;53.196;19.638;2023-05-01T00:04:18;100808.41;;;7.44;44.22
68380;BME280;57711;53.196;19.638;2023-05-01T00:06:47;100811.06;;;7.42;44.41
68380;BME280;57711;53.196;19.638;2023-05-01T00:09:15;100812.84;;;7.45;44.36
68380;BME280;57711;53.196;19.638;2023-05-01T00:11:42;100809.87;;;7.47;44.41
68380;BME280;57711;53.196;19.638;2023-05-01T00:14:09;100812.31;;;7.48;44.40
68380;BME280;57711;53.196;19.638;2023-05-01T00:16:36;100812.00;;;7.50;44.36
68380;BME280;57711;53.196;19.638;2023-05-01T00:19:04;100811.19;;;7.48;44.34
68380;BME280;57711;53.196;19.638;2023-05-01T00:21:31;100812.21;;;7.47;44.47
68380;BME280;57711;53.196;19.638;2023-05-01T00:23:58;100808.59;;;7.47;44.53
68380;BME280;57711;53.196;19.638;2023-05-01T00:26:25;100805.15;;;7.47;44.57
68380;BME280;57711;53.196;19.638;2023-05-01T00:28:56;100807.11;;;7.48;44.68
68380;BME280;57711;53.196;19.638;2023-05-01T00:31:24;100808.72;;;7.45;44.68
68380;BME280;57711;53.196;19.638;2023-05-01T00:33:52;100806.41;;;7.45;44.63
68380;BME280;57711;53.196;19.638;2023-05-01T00:36:19;100801.88;;;7.45;44.57
68380;BME280;57711;53.196;19.638;2023-05-01T00:38:46;100802.23;;;7.43;44.55
68380;BME280;57711;53.196;19.638;2023-05-01T00:41:14;100804.65;;;7.41;44.66
68380;BME280;57711;53.196;19.638;2023-05-01T00:43:41;100802.20;;;7.41;44.74
68380;BME280;57711;53.196;19.638;2023-05-01T00:46:08;100804.25;;;7.39;44.59
68380;BME280;57711;53.196;19.638;2023-05-01T00:48:37;100804.73;;;7.37;44.67
68380;BME280;57711;53.196;19.638;2023-05-01T00:51:04;100802.81;;;7.36;44.67
68380;BME280;57711;53.196;19.638;2023-05-01T00:53:33;100801.25;;;7.36;44.72
68380;BME280;57711;53.196;19.638;2023-05-01T00:56:00;100806.56;;;7.34;44.81
68380;BME280;57711;53.196;19.638;2023-05-01T00:58:28;100805.92;;;7.33;44.81
68380;BME280;57711;53.196;19.638;2023-05-01T01:00:55;100801.58;;;7.31;44.80
68380;BME280;57711;53.196;19.638;2023-05-01T01:03:23;100800.61;;;7.27;44.71
68380;BME280;57711;53.196;19.638;2023-05-01T01:05:55;100801.49;;;7.24;44.82
68380;BME280;57711;53.196;19.638;2023-05-01T01:08:29;100804.15;;;7.22;44.96
68380;BME280;57711;53.196;19.638;2023-05-01T01:11:01;100803.70;;;7.21;44.99
68380;BME280;57711;53.196;19.638;2023-05-01T01:13:42;100801.59;;;7.20;45.09
68380;BME280;57711;53.196;19.638;2023-05-01T01:16:20;100793.27;;;7.18;45.03
68380;BME280;57711;53.196;19.638;2023-05-01T01:19:00;100796.96;;;7.16;45.14
68380;BME280;57711;53.196;19.638;2023-05-01T01:21:34;100795.23;;;7.12;45.12
68380;BME280;57711;53.196;19.638;2023-05-01T01:32:59;100790.54;;;7.05;45.21
68380;BME280;57711;53.196;19.638;2023-05-01T01:35:36;100788.75;;;7.02;45.25
68380;BME280;57711;53.196;19.638;2023-05-01T01:38:11;100789.88;;;7.01;45.35
68380;BME280;57711;53.196;19.638;2023-05-01T01:40:52;100788.48;;;7.00;45.27
68380;BME280;57711;53.196;19.638;2023-05-01T01:43:21;100787.48;;;6.99;45.31
68380;BME280;57711;53.196;19.638;2023-05-01T01:45:57;100787.48;;;6.97;45.22
68380;BME280;57711;53.196;19.638;2023-05-01T01:48:30;100785.11;;;6.89;45.24
68380;BME280;57711;53.196;19.638;2023-05-01T01:51:00;100786.45;;;6.82;45.14
68380;BME280;57711;53.196;19.638;2023-05-01T01:53:33;100787.38;;;6.73;45.26
68380;BME280;57711;53.196;19.638;2023-05-01T01:56:04;100784.17;;;6.62;45.27
68380;BME280;57711;53.196;19.638;2023-05-01T01:58:35;100787.39;;;6.51;45.18
68380;BME280;57711;53.196;19.638;2023-05-01T02:01:04;100785.95;;;6.42;45.22
68380;BME280;57711;53.196;19.638;2023-05-01T02:03:32;100782.98;;;6.38;45.39
68380;BME280;57711;53.196;19.638;2023-05-01T02:06:02;100782.27;;;6.32;45.29
68380;BME280;57711;53.196;19.638;2023-05-01T02:08:33;100783.16;;;6.21;45.29
68380;BME280;57711;53.196;19.638;2023-05-01T02:11:02;100777.31;;;6.11;45.34
68380;BME280;57711;53.196;19.638;2023-05-01T02:13:32;100783.27;;;6.04;45.33
68380;BME280;57711;53.196;19.638;2023-05-01T02:16:02;100779.36;;;6.07;45.49
68380;BME280;57711;53.196;19.638;2023-05-01T02:18:32;100779.18;;;6.07;45.46
68380;BME280;57711;53.196;19.638;2023-05-01T02:21:00;100771.70;;;6.09;45.52
68380;BME280;57711;53.196;19.638;2023-05-01T02:23:34;100769.20;;;6.12;45.57
68380;BME280;57711;53.196;19.638;2023-05-01T02:26:03;100767.92;;;6.15;45.63
68380;BME280;57711;53.196;19.638;2023-05-01T02:28:32;100764.04;;;6.19;45.63
68380;BME280;57711;53.196;19.638;2023-05-01T02:31:00;100760.17;;;6.21;45.68
68380;BME280;57711;53.196;19.638;2023-05-01T02:33:27;100759.07;;;6.24;45.73
68380;BME280;57711;53.196;19.638;2023-05-01T02:35:56;100758.56;;;6.27;45.63
68380;BME280;57711;53.196;19.638;2023-05-01T02:38:24;100759.67;;;6.29;45.59
68380;BME280;57711;53.196;19.638;2023-05-01T02:40:55;100761.73;;;6.30;45.80
68380;BME280;57711;53.196;19.638;2023-05-01T02:43:24;100758.13;;;6.31;45.75
68380;BME280;57711;53.196;19.638;2023-05-01T02:45:53;100758.50;;;6.30;45.80
68380;BME280;57711;53.196;19.638;2023-05-01T02:48:26;100756.80;;;6.32;45.69
68380;BME280;57711;53.196;19.638;2023-05-01T02:50:55;100758.35;;;6.33;45.80
68380;BME280;57711;53.196;19.638;2023-05-01T02:53:23;100757.80;;;6.33;45.85
68380;BME280;57711;53.196;19.638;2023-05-01T02:55:54;100758.79;;;6.31;45.81
68380;BME280;57711;53.196;19.638;2023-05-01T02:58:21;100759.17;;;6.31;45.99
68380;BME280;57711;53.196;19.638;2023-05-01T03:00:49;100757.57;;;6.31;45.83
68380;BME280;57711;53.196;19.638;2023-05-01T03:03:17;100762.80;;;6.31;46.02
68380;BME280;57711;53.196;19.638;2023-05-01T03:05:44;100760.51;;;6.30;46.07
68380;BME280;57711;53.196;19.638;2023-05-01T03:08:12;100760.88;;;6.30;46.03
68380;BME280;57711;53.196;19.638;2023-05-01T03:10:39;100763.04;;;6.30;46.08
68380;BME280;57711;53.196;19.638;2023-05-01T03:13:09;100761.24;;;6.30;45.90
68380;BME280;57711;53.196;19.638;2023-05-01T03:15:39;100757.19;;;6.29;46.00
68380;BME280;57711;53.196;19.638;2023-05-01T03:18:07;100755.23;;;6.25;45.98
68380;BME280;57711;53.196;19.638;2023-05-01T03:20:34;100756.61;;;6.23;46.06
68380;BME280;57711;53.196;19.638;2023-05-01T03:23:02;100758.34;;;6.19;46.06
68380;BME280;57711;53.196;19.638;2023-05-01T03:25:29;100759.80;;;6.13;45.99
68380;BME280;57711;53.196;19.638;2023-05-01T03:27:56;100763.56;;;6.10;46.10
68380;BME280;57711;53.196;19.638;2023-05-01T03:30:23;100760.61;;;6.05;46.07
68380;BME280;57711;53.196;19.638;2023-05-01T03:32:51;100763.91;;;6.04;46.10
68380;BME280;57711;53.196;19.638;2023-05-01T03:35:22;100764.07;;;6.04;46.20
68380;BME280;57711;53.196;19.638;2023-05-01T03:37:49;100761.95;;;6.01;46.03
68380;BME280;57711;53.196;19.638;2023-05-01T03:40:39;100767.38;;;5.97;46.03
68380;BME280;57711;53.196;19.638;2023-05-01T03:43:35;100767.83;;;5.96;46.22
68380;BME280;57711;53.196;19.638;2023-05-01T03:46:06;100766.55;;;5.99;46.40
68380;BME280;57711;53.196;19.638;2023-05-01T03:48:33;100768.70;;;6.02;46.18
68380;BME280;57711;53.196;19.638;2023-05-01T03:51:00;100770.54;;;6.01;46.22
68380;BME280;57711;53.196;19.638;2023-05-01T03:53:28;100770.06;;;6.00;46.32
68380;BME280;57711;53.196;19.638;2023-05-01T03:55:56;100768.59;;;6.01;46.39
68380;BME280;57711;53.196;19.638;2023-05-01T03:58:24;100768.70;;;6.05;46.43
68380;BME280;57711;53.196;19.638;2023-05-01T04:00:53;100768.28;;;6.09;46.42
68380;BME280;57711;53.196;19.638;2023-05-01T04:03:23;100767.73;;;6.09;46.40
68380;BME280;57711;53.196;19.638;2023-05-01T04:05:51;100769.31;;;6.10;46.40
68380;BME280;57711;53.196;19.638;2023-05-01T04:08:18;100770.72;;;6.08;46.47
68380;BME280;57711;53.196;19.638;2023-05-01T04:10:46;100772.67;;;6.08;46.58
68380;BME280;57711;53.196;19.638;2023-05-01T04:13:13;100774.85;;;6.10;46.55
68380;BME280;57711;53.196;19.638;2023-05-01T04:15:43;100772.75;;;6.12;46.51
68380;BME280;57711;53.196;19.638;2023-05-01T04:18:12;100775.41;;;6.13;46.43
68380;BME280;57711;53.196;19.638;2023-05-01T04:20:39;100773.21;;;6.11;46.57
68380;BME280;57711;53.196;19.638;2023-05-01T04:23:06;100767.90;;;6.12;46.65
68380;BME280;57711;53.196;19.638;2023-05-01T04:25:35;100769.92;;;6.15;46.82
68380;BME280;57711;53.196;19.638;2023-05-01T04:28:11;100764.29;;;6.21;46.71
68380;BME280;57711;53.196;19.638;2023-05-01T04:30:39;100769.39;;;6.28;46.90
68380;BME280;57711;53.196;19.638;2023-05-01T04:33:06;100765.55;;;6.32;46.70
68380;BME280;57711;53.196;19.638;2023-05-01T04:35:38;100762.61;;;6.36;46.90
68380;BME280;57711;53.196;19.638;2023-05-01T04:38:06;100761.02;;;6.41;46.91
68380;BME280;57711;53.196;19.638;2023-05-01T04:40:33;100764.50;;;6.49;46.87
68380;BME280;57711;53.196;19.638;2023-05-01T04:43:00;100764.13;;;6.55;47.01
68380;BME280;57711;53.196;19.638;2023-05-01T04:45:27;100763.02;;;6.60;47.05
68380;BME280;57711;53.196;19.638;2023-05-01T04:47:55;100760.08;;;6.65;47.01
68380;BME280;57711;53.196;19.638;2023-05-01T04:50:23;100763.98;;;6.68;47.03
68380;BME280;57711;53.196;19.638;2023-05-01T04:52:50;100760.42;;;6.73;47.16
68380;BME280;57711;53.196;19.638;2023-05-01T04:55:18;100761.48;;;6.79;47.18
68380;BME280;57711;53.196;19.638;2023-05-01T04:58:02;100757.88;;;6.82;47.23
68380;BME280;57711;53.196;19.638;2023-05-01T05:00:31;100755.79;;;6.87;47.10
68380;BME280;57711;53.196;19.638;2023-05-01T05:02:59;100761.37;;;6.92;47.11
68380;BME280;57711;53.196;19.638;2023-05-01T05:05:27;100759.61;;;6.96;47.14
68380;BME280;57711;53.196;19.638;2023-05-01T05:07:54;100755.35;;;7.01;47.29
68380;BME280;57711;53.196;19.638;2023-05-01T05:10:34;100755.45;;;7.08;47.42
68380;BME280;57711;53.196;19.638;2023-05-01T05:13:23;100755.29;;;7.15;47.14
68380;BME280;57711;53.196;19.638;2023-05-01T05:15:56;100752.84;;;7.20;47.31
68380;BME280;57711;53.196;19.638;2023-05-01T05:18:25;100752.59;;;7.24;47.32
68380;BME280;57711;53.196;19.638;2023-05-01T05:20:52;100752.39;;;7.29;47.25
68380;BME280;57711;53.196;19.638;2023-05-01T05:23:19;100754.52;;;7.38;47.42
68380;BME280;57711;53.196;19.638;2023-05-01T05:25:47;100754.83;;;7.44;47.43
68380;BME280;57711;53.196;19.638;2023-05-01T05:28:14;100756.99;;;7.51;47.42
68380;BME280;57711;53.196;19.638;2023-05-01T05:30:42;100763.21;;;7.58;47.37
68380;BME280;57711;53.196;19.638;2023-05-01T05:33:11;100760.64;;;7.67;47.50
68380;BME280;57711;53.196;19.638;2023-05-01T05:35:39;100758.77;;;7.73;47.24
68380;BME280;57711;53.196;19.638;2023-05-01T05:38:07;100760.44;;;7.78;47.34
68380;BME280;57711;53.196;19.638;2023-05-01T05:40:36;100757.74;;;7.88;47.55
68380;BME280;57711;53.196;19.638;2023-05-01T05:43:03;100756.98;;;8.02;47.56
68380;BME280;57711;53.196;19.638;2023-05-01T05:45:34;100757.67;;;8.12;47.53
68380;BME280;57711;53.196;19.638;2023-05-01T05:48:02;100751.02;;;8.19;47.38
68380;BME280;57711;53.196;19.638;2023-05-01T05:50:32;100750.88;;;8.26;47.27
68380;BME280;57711;53.196;19.638;2023-05-01T05:52:59;100751.27;;;8.31;47.34
68380;BME280;57711;53.196;19.638;2023-05-01T05:55:27;100751.61;;;8.36;47.16
68380;BME280;57711;53.196;19.638;2023-05-01T05:58:00;100750.77;;;8.43;47.24
68380;BME280;57711;53.196;19.638;2023-05-01T06:00:27;100754.67;;;8.49;47.29
68380;BME280;57711;53.196;19.638;2023-05-01T06:02:55;100758.05;;;8.57;47.51
68380;BME280;57711;53.196;19.638;2023-05-01T06:05:24;100758.09;;;8.66;47.30
68380;BME280;57711;53.196;19.638;2023-05-01T06:07:51;100756.53;;;8.76;47.38
68380;BME280;57711;53.196;19.638;2023-05-01T06:10:20;100760.98;;;8.84;47.39
68380;BME280;57711;53.196;19.638;2023-05-01T06:12:47;100762.75;;;8.87;47.31
68380;BME280;57711;53.196;19.638;2023-05-01T06:15:38;100760.42;;;8.89;47.08
68380;BME280;57711;53.196;19.638;2023-05-01T06:18:06;100762.92;;;8.96;47.33
68380;BME280;57711;53.196;19.638;2023-05-01T06:20:34;100766.95;;;9.13;47.36
68380;BME280;57711;53.196;19.638;2023-05-01T06:23:01;100763.64;;;9.21;47.30
68380;BME280;57711;53.196;19.638;2023-05-01T06:25:37;100763.57;;;9.29;47.21
68380;BME280;57711;53.196;19.638;2023-05-01T06:28:05;100765.37;;;9.41;47.30
68380;BME280;57711;53.196;19.638;2023-05-01T06:30:32;100766.20;;;9.54;47.37
68380;BME280;57711;53.196;19.638;2023-05-01T06:33:00;100771.54;;;9.66;47.43
68380;BME280;57711;53.196;19.638;2023-05-01T06:35:28;100763.61;;;9.78;47.38
68380;BME280;57711;53.196;19.638;2023-05-01T06:37:55;100764.63;;;9.93;47.36
68380;BME280;57711;53.196;19.638;2023-05-01T06:40:22;100764.01;;;10.03;47.35
68380;BME280;57711;53.196;19.638;2023-05-01T06:42:50;100762.61;;;10.14;47.35
68380;BME280;57711;53.196;19.638;2023-05-01T06:45:17;100758.80;;;10.30;47.23
68380;BME280;57711;53.196;19.638;2023-05-01T06:47:45;100753.22;;;10.41;47.19
68380;BME280;57711;53.196;19.638;2023-05-01T06:50:12;100750.98;;;10.51;47.16
68380;BME280;57711;53.196;19.638;2023-05-01T06:52:40;100753.92;;;10.64;47.28
68380;BME280;57711;53.196;19.638;2023-05-01T06:55:08;100748.64;;;10.80;47.30
68380;BME280;57711;53.196;19.638;2023-05-01T06:57:35;100748.20;;;10.94;47.33
68380;BME280;57711;53.196;19.638;2023-05-01T07:00:03;100745.25;;;11.05;47.11
68380;BME280;57711;53.196;19.638;2023-05-01T07:02:30;100745.20;;;11.17;47.19
68380;BME280;57711;53.196;19.638;2023-05-01T07:04:58;100743.04;;;11.25;47.04
68380;BME280;57711;53.196;19.638;2023-05-01T07:07:25;100740.27;;;11.35;47.26
68380;BME280;57711;53.196;19.638;2023-05-01T07:09:52;100738.48;;;11.47;46.97
68380;BME280;57711;53.196;19.638;2023-05-01T07:12:20;100733.69;;;11.48;46.80
68380;BME280;57711;53.196;19.638;2023-05-01T07:14:49;100731.54;;;11.47;46.90
68380;BME280;57711;53.196;19.638;2023-05-01T07:17:16;100732.82;;;11.47;46.87
68380;BME280;57711;53.196;19.638;2023-05-01T07:19:43;100728.79;;;11.48;46.87
68380;BME280;57711;53.196;19.638;2023-05-01T07:22:10;100722.83;;;11.57;46.94
68380;BME280;57711;53.196;19.638;2023-05-01T07:24:38;100723.85;;;11.63;47.04
68380;BME280;57711;53.196;19.638;2023-05-01T07:27:05;100724.09;;;11.78;47.14
68380;BME280;57711;53.196;19.638;2023-05-01T07:29:35;100722.52;;;11.94;47.17
68380;BME280;57711;53.196;19.638;2023-05-01T07:32:02;100725.45;;;12.06;47.16
68380;BME280;57711;53.196;19.638;2023-05-01T07:34:31;100723.77;;;12.13;46.91
68380;BME280;57711;53.196;19.638;2023-05-01T07:36:59;100722.70;;;12.17;46.82
68380;BME280;57711;53.196;19.638;2023-05-01T07:39:26;100723.73;;;12.23;46.84
68380;BME280;57711;53.196;19.638;2023-05-01T07:41:53;100723.09;;;12.28;46.92
68380;BME280;57711;53.196;19.638;2023-05-01T07:44:22;100723.60;;;12.35;46.92
68380;BME280;57711;53.196;19.638;2023-05-01T07:46:49;100723.30;;;12.38;46.92
68380;BME280;57711;53.196;19.638;2023-05-01T07:49:17;100718.13;;;12.41;46.86
68380;BME280;57711;53.196;19.638;2023-05-01T07:51:44;100718.63;;;12.44;46.70
68380;BME280;57711;53.196;19.638;2023-05-01T07:54:11;100721.13;;;12.50;46.60
68380;BME280;57711;53.196;19.638;2023-05-01T07:56:40;100720.44;;;12.54;46.73
68380;BME280;57711;53.196;19.638;2023-05-01T07:59:07;100720.53;;;12.61;46.66
68380;BME280;57711;53.196;19.638;2023-05-01T08:01:35;100718.15;;;12.68;46.64
68380;BME280;57711;53.196;19.638;2023-05-01T08:04:02;100716.15;;;12.71;46.68
68380;BME280;57711;53.196;19.638;2023-05-01T08:06:29;100713.68;;;12.79;46.77
68380;BME280;57711;53.196;19.638;2023-05-01T08:08:57;100711.68;;;12.84;46.61
68380;BME280;57711;53.196;19.638;2023-05-01T08:11:25;100710.06;;;12.94;46.71
68380;BME280;57711;53.196;19.638;2023-05-01T08:13:52;100711.53;;;13.06;46.71
68380;BME280;57711;53.196;19.638;2023-05-01T08:16:20;100709.70;;;13.12;46.70
68380;BME280;57711;53.196;19.638;2023-05-01T08:18:48;100707.44;;;13.19;46.39
68380;BME280;57711;53.196;19.638;2023-05-01T08:21:15;100706.86;;;13.23;46.36
68380;BME280;57711;53.196;19.638;2023-05-01T08:23:42;100702.10;;;13.30;46.49
68380;BME280;57711;53.196;19.638;2023-05-01T08:26:09;100699.35;;;13.40;46.68
68380;BME280;57711;53.196;19.638;2023-05-01T08:28:36;100695.67;;;13.48;46.30
68380;BME280;57711;53.196;19.638;2023-05-01T08:31:03;100698.91;;;13.56;46.13
68380;BME280;57711;53.196;19.638;2023-05-01T08:33:31;100698.32;;;13.62;46.21
68380;BME280;57711;53.196;19.638;2023-05-01T08:35:58;100693.31;;;13.71;46.29
68380;BME280;57711;53.196;19.638;2023-05-01T08:38:25;100694.73;;;13.81;46.25
68380;BME280;57711;53.196;19.638;2023-05-01T08:40:52;100696.73;;;13.92;46.12
68380;BME280;57711;53.196;19.638;2023-05-01T08:43:20;100689.52;;;14.03;46.07
68380;BME280;57711;53.196;19.638;2023-05-01T08:45:48;100694.08;;;14.10;46.01
68380;BME280;57711;53.196;19.638;2023-05-01T08:48:17;100690.02;;;14.17;46.02
68380;BME280;57711;53.196;19.638;2023-05-01T08:50:46;100691.00;;;14.32;45.95
68380;BME280;57711;53.196;19.638;2023-05-01T08:53:17;100693.97;;;14.43;45.82
68380;BME280;57711;53.196;19.638;2023-05-01T08:55:47;100690.63;;;14.46;45.71
68380;BME280;57711;53.196;19.638;2023-05-01T08:58:17;100697.48;;;14.48;45.55
68380;BME280;57711;53.196;19.638;2023-05-01T09:00:46;100691.12;;;14.42;45.53
68380;BME280;57711;53.196;19.638;2023-05-01T09:03:14;100686.54;;;14.46;45.41
68380;BME280;57711;53.196;19.638;2023-05-01T09:05:43;100683.96;;;14.56;45.62
68380;BME280;57711;53.196;19.638;2023-05-01T09:08:11;100686.98;;;14.66;45.51
68380;BME280;57711;53.196;19.638;2023-05-01T09:10:41;100679.31;;;14.71;45.39
68380;BME280;57711;53.196;19.638;2023-05-01T09:13:10;100676.48;;;14.80;45.65
68380;BME280;57711;53.196;19.638;2023-05-01T09:15:38;100674.20;;;14.96;45.60
68380;BME280;57711;53.196;19.638;2023-05-01T09:18:07;100675.92;;;15.07;45.36
68380;BME280;57711;53.196;19.638;2023-05-01T09:20:35;100674.70;;;15.19;45.05
68380;BME280;57711;53.196;19.638;2023-05-01T09:23:03;100671.80;;;15.32;45.37
68380;BME280;57711;53.196;19.638;2023-05-01T09:25:31;100668.69;;;15.52;45.47
68380;BME280;57711;53.196;19.638;2023-05-01T09:27:58;100665.68;;;15.68;45.24
68380;BME280;57711;53.196;19.638;2023-05-01T09:30:32;100665.48;;;15.77;45.03
68380;BME280;57711;53.196;19.638;2023-05-01T09:33:18;100662.46;;;15.82;45.12
68380;BME280;57711;53.196;19.638;2023-05-01T09:38:21;100657.77;;;15.79;44.90
68380;BME280;57711;53.196;19.638;2023-05-01T09:40:49;100655.20;;;15.87;44.88
68380;BME280;57711;53.196;19.638;2023-05-01T09:43:26;100653.21;;;15.97;45.05
68380;BME280;57711;53.196;19.638;2023-05-01T09:46:05;100654.36;;;16.02;44.79
68380;BME280;57711;53.196;19.638;2023-05-01T09:48:33;100650.80;;;16.08;44.87
68380;BME280;57711;53.196;19.638;2023-05-01T09:51:26;100654.82;;;16.18;44.74
68380;BME280;57711;53.196;19.638;2023-05-01T09:53:55;100649.81;;;16.15;44.51
68380;BME280;57711;53.196;19.638;2023-05-01T09:56:24;100649.94;;;16.12;44.39
68380;BME280;57711;53.196;19.638;2023-05-01T09:58:52;100646.47;;;16.02;44.35
68380;BME280;57711;53.196;19.638;2023-05-01T10:01:42;100637.21;;;15.98;44.43
68380;BME280;57711;53.196;19.638;2023-05-01T10:04:09;100639.71;;;16.00;44.28
68380;BME280;57711;53.196;19.638;2023-05-01T10:06:38;100635.83;;;15.99;44.20
68380;BME280;57711;53.196;19.638;2023-05-01T10:09:06;100632.55;;;15.97;44.10
68380;BME280;57711;53.196;19.638;2023-05-01T10:11:49;100630.52;;;15.98;44.03
68380;BME280;57711;53.196;19.638;2023-05-01T10:14:18;100626.33;;;16.04;44.10
68380;BME280;57711;53.196;19.638;2023-05-01T10:16:46;100625.05;;;16.09;44.02
68380;BME280;57711;53.196;19.638;2023-05-01T10:19:13;100619.94;;;16.13;43.93
68380;BME280;57711;53.196;19.638;2023-05-01T10:21:42;100621.64;;;16.19;43.88
68380;BME280;57711;53.196;19.638;2023-05-01T10:24:09;100616.91;;;16.24;43.87
68380;BME280;57711;53.196;19.638;2023-05-01T10:26:37;100606.40;;;16.31;43.87
68380;BME280;57711;53.196;19.638;2023-05-01T10:29:04;100603.70;;;16.38;43.82
68380;BME280;57711;53.196;19.638;2023-05-01T10:31:31;100600.98;;;16.45;43.70
68380;BME280;57711;53.196;19.638;2023-05-01T10:33:59;100599.22;;;16.48;43.60
68380;BME280;57711;53.196;19.638;2023-05-01T10:36:40;100592.83;;;16.53;43.60
68380;BME280;57711;53.196;19.638;2023-05-01T10:39:34;100586.39;;;16.65;43.76
68380;BME280;57711;53.196;19.638;2023-05-01T10:44:32;100579.58;;;16.84;43.47
68380;BME280;57711;53.196;19.638;2023-05-01T10:50:10;100581.79;;;16.91;43.42
68380;BME280;57711;53.196;19.638;2023-05-01T10:55:41;100571.93;;;17.12;43.29
68380;BME280;57711;53.196;19.638;2023-05-01T10:58:13;100569.91;;;17.15;43.31
68380;BME280;57711;53.196;19.638;2023-05-01T11:01:39;100570.80;;;17.19;43.13
68380;BME280;57711;53.196;19.638;2023-05-01T11:04:07;100564.55;;;17.16;42.98
68380;BME280;57711;53.196;19.638;2023-05-01T11:07:14;100561.64;;;17.17;43.02
68380;BME280;57711;53.196;19.638;2023-05-01T11:09:50;100559.27;;;17.17;42.80
68380;BME280;57711;53.196;19.638;2023-05-01T11:15:27;100554.00;;;17.18;42.82
68380;BME280;57711;53.196;19.638;2023-05-01T11:17:58;100548.07;;;17.21;42.82
68380;BME280;57711;53.196;19.638;2023-05-01T11:22:54;100536.76;;;17.40;42.80
68380;BME280;57711;53.196;19.638;2023-05-01T11:25:25;100538.08;;;17.46;42.46
68380;BME280;57711;53.196;19.638;2023-05-01T11:27:54;100538.98;;;17.47;42.50
68380;BME280;57711;53.196;19.638;2023-05-01T11:30:22;100531.80;;;17.47;42.34
68380;BME280;57711;53.196;19.638;2023-05-01T11:32:50;100531.56;;;17.51;42.37
68380;BME280;57711;53.196;19.638;2023-05-01T11:37:47;100528.15;;;17.64;42.43
68380;BME280;57711;53.196;19.638;2023-05-01T11:40:32;100528.99;;;17.74;42.32
68380;BME280;57711;53.196;19.638;2023-05-01T11:43:06;100526.73;;;17.78;42.31
68380;BME280;57711;53.196;19.638;2023-05-01T11:45:35;100523.20;;;17.90;42.38
68380;BME280;57711;53.196;19.638;2023-05-01T11:48:03;100519.40;;;17.98;42.28
68380;BME280;57711;53.196;19.638;2023-05-01T11:50:32;100510.54;;;18.06;42.27
68380;BME280;57711;53.196;19.638;2023-05-01T11:53:03;100510.48;;;18.22;42.20
68380;BME280;57711;53.196;19.638;2023-05-01T11:55:32;100506.50;;;18.39;42.11
68380;BME280;57711;53.196;19.638;2023-05-01T11:58:00;100506.85;;;18.48;41.92
68380;BME280;57711;53.196;19.638;2023-05-01T12:00:38;100501.21;;;18.57;41.86
68380;BME280;57711;53.196;19.638;2023-05-01T12:03:07;100499.64;;;18.66;41.86
68380;BME280;57711;53.196;19.638;2023-05-01T12:05:37;100497.83;;;18.69;41.84
68380;BME280;57711;53.196;19.638;2023-05-01T12:08:07;100488.61;;;18.66;41.70
68380;BME280;57711;53.196;19.638;2023-05-01T12:10:36;100490.52;;;18.64;41.50
68380;BME280;57711;53.196;19.638;2023-05-01T12:13:05;100490.57;;;18.62;41.54
68380;BME280;57711;53.196;19.638;2023-05-01T12:15:37;100487.47;;;18.62;41.54
68380;BME280;57711;53.196;19.638;2023-05-01T12:18:05;100483.61;;;18.65;41.35
68380;BME280;57711;53.196;19.638;2023-05-01T12:20:42;100478.14;;;18.57;41.27
68380;BME280;57711;53.196;19.638;2023-05-01T12:23:11;100473.56;;;18.55;41.15
68380;BME280;57711;53.196;19.638;2023-05-01T12:25:39;100471.13;;;18.46;41.12
68380;BME280;57711;53.196;19.638;2023-05-01T12:28:13;100466.42;;;18.36;41.09
68380;BME280;57711;53.196;19.638;2023-05-01T12:30:42;100464.85;;;18.30;41.09
68380;BME280;57711;53.196;19.638;2023-05-01T12:33:12;100457.75;;;18.30;41.04
68380;BME280;57711;53.196;19.638;2023-05-01T12:35:41;100454.27;;;18.32;40.77
68380;BME280;57711;53.196;19.638;2023-05-01T12:40:56;100454.61;;;18.32;40.84
68380;BME280;57711;53.196;19.638;2023-05-01T12:43:32;100454.29;;;18.38;40.82
68380;BME280;57711;53.196;19.638;2023-05-01T12:46:01;100448.32;;;18.41;40.69
68380;BME280;57711;53.196;19.638;2023-05-01T12:48:30;100448.96;;;18.47;40.72
68380;BME280;57711;53.196;19.638;2023-05-01T12:50:57;100443.72;;;18.46;40.63
68380;BME280;57711;53.196;19.638;2023-05-01T12:53:26;100442.97;;;18.50;40.61
68380;BME280;57711;53.196;19.638;2023-05-01T12:55:55;100440.60;;;18.45;40.42
68380;BME280;57711;53.196;19.638;2023-05-01T12:58:30;100437.14;;;18.33;40.39
68380;BME280;57711;53.196;19.638;2023-05-01T13:01:01;100433.65;;;18.22;40.32
68380;BME280;57711;53.196;19.638;2023-05-01T13:03:29;100424.54;;;18.16;40.22
68380;BME280;57711;53.196;19.638;2023-05-01T13:06:03;100432.95;;;18.16;40.49
68380;BME280;57711;53.196;19.638;2023-05-01T13:08:35;100432.14;;;18.11;40.14
68380;BME280;57711;53.196;19.638;2023-05-01T13:11:11;100424.20;;;18.04;40.29
68380;BME280;57711;53.196;19.638;2023-05-01T13:13:39;100412.75;;;18.04;40.31
68380;BME280;57711;53.196;19.638;2023-05-01T13:16:10;100415.83;;;18.10;40.21
68380;BME280;57711;53.196;19.638;2023-05-01T13:18:42;100417.84;;;18.15;40.10
68380;BME280;57711;53.196;19.638;2023-05-01T13:21:11;100410.30;;;18.09;39.91
68380;BME280;57711;53.196;19.638;2023-05-01T13:23:41;100403.17;;;18.04;39.87
68380;BME280;57711;53.196;19.638;2023-05-01T13:26:08;100401.39;;;18.04;40.03
68380;BME280;57711;53.196;19.638;2023-05-01T13:28:42;100400.95;;;18.06;39.95
68380;BME280;57711;53.196;19.638;2023-05-01T13:31:12;100399.04;;;18.07;39.82